createdAt,value
2018-12-08T00:03:49.174Z,103.87
2018-12-08T00:22:42.861Z,107.90
2018-12-08T00:25:28.592Z,120.43
2018-12-08T00:31:17.676Z,115.37
2018-12-08T00:34:06.824Z,108.63
2018-12-08T00:37:06.184Z,98.93
2018-12-08T00:42:44.021Z,96.37
2018-12-08T00:54:07.442Z,92.33
2018-12-08T00:57:06.771Z,91.37
2018-12-08T00:59:52.403Z,86.03
2018-12-08T01:02:53.616Z,87.07
2018-12-08T01:05:42.988Z,85.90
2018-12-08T01:08:28.266Z,90.30
2018-12-08T01:11:08.533Z,86.97
2018-12-08T01:13:54.094Z,94.00
2018-12-08T01:16:33.230Z,91.30
2018-12-08T01:19:18.754Z,92.97
2018-12-08T01:21:57.924Z,87.90
2018-12-08T01:24:44.214Z,84.20
2018-12-08T01:27:23.805Z,88.70
2018-12-08T01:30:03.305Z,93.17
2018-12-08T01:32:49.013Z,95.70
2018-12-08T01:35:29.147Z,88.50
2018-12-08T01:38:14.868Z,88.67
2018-12-08T01:40:55.075Z,93.50
2018-12-08T01:43:35.588Z,86.23
2018-12-08T01:46:03.130Z,86.90
2018-12-08T01:48:30.662Z,82.87
2018-12-08T01:50:58.328Z,83.70
2018-12-08T01:53:38.592Z,80.27
2018-12-08T01:56:06.164Z,73.37
2018-12-08T01:58:33.688Z,74.90
2018-12-08T02:01:13.048Z,79.47
2018-12-08T02:03:40.624Z,80.40
2018-12-08T02:06:08.157Z,82.20
2018-12-08T02:08:48.511Z,78.30
2018-12-08T02:11:16.085Z,75.37
2018-12-08T02:13:56.495Z,82.43
2018-12-08T02:16:36.989Z,82.30
2018-12-08T02:19:17.579Z,83.07
2018-12-08T02:21:57.738Z,81.00
2018-12-08T02:24:25.263Z,78.30
2018-12-08T02:26:52.788Z,88.17
2018-12-08T02:29:20.344Z,85.30
2018-12-08T02:31:47.877Z,87.27
2018-12-08T02:34:15.505Z,89.77
2018-12-08T02:36:43.041Z,85.30
2018-12-08T02:39:10.620Z,84.27
2018-12-08T02:41:50.985Z,89.40
2018-12-08T02:44:31.459Z,81.93
2018-12-08T02:47:11.876Z,79.60
2018-12-08T02:49:39.452Z,80.87
2018-12-08T02:52:19.860Z,79.60
2018-12-08T02:54:47.438Z,77.87
2018-12-08T02:57:14.981Z,81.43
2018-12-08T02:59:42.560Z,86.67
2018-12-08T03:02:22.748Z,90.27
2018-12-08T03:04:50.286Z,92.00
2018-12-08T03:07:30.672Z,89.33
2018-12-08T03:10:11.002Z,85.40
2018-12-08T03:12:38.581Z,86.70
2018-12-08T03:15:19.014Z,87.97
2018-12-08T03:17:46.624Z,96.03
2018-12-08T03:20:27.059Z,101.73
2018-12-08T03:22:54.631Z,101.40
2018-12-08T03:25:22.168Z,96.03
2018-12-08T03:27:49.731Z,90.90
2018-12-08T03:30:30.382Z,91.73
2018-12-08T03:33:10.679Z,83.43
2018-12-08T03:35:51.207Z,85.03
2018-12-08T03:38:31.620Z,88.13
2018-12-08T03:41:12.999Z,81.17
2018-12-08T03:43:53.565Z,81.23
2018-12-08T03:46:34.899Z,82.23
2018-12-08T03:49:15.312Z,80.17
2018-12-08T03:51:55.781Z,76.47
2018-12-08T03:54:36.244Z,82.50
2018-12-08T03:57:16.674Z,82.23
2018-12-08T03:59:57.287Z,82.17
2018-12-08T04:02:37.550Z,83.40
2018-12-08T04:05:17.934Z,77.10
2018-12-08T04:07:58.274Z,78.13
2018-12-08T04:10:39.675Z,80.47
2018-12-08T04:13:20.153Z,82.33
2018-12-08T04:16:00.612Z,80.00
2018-12-08T04:18:41.087Z,75.53
2018-12-08T04:21:21.516Z,74.10
2018-12-08T04:24:01.969Z,89.97
2018-12-08T04:26:43.301Z,86.77
2018-12-08T04:29:10.884Z,86.90
2018-12-08T04:31:38.455Z,91.73
2018-12-08T04:34:06.017Z,92.67
2018-12-08T04:36:46.510Z,93.40
2018-12-08T04:39:14.039Z,96.33
2018-12-08T04:41:41.607Z,95.83
2018-12-08T04:44:09.176Z,99.83
2018-12-08T04:49:27.121Z,88.77
2018-12-08T04:55:04.892Z,87.27
2018-12-08T04:57:50.276Z,82.57
2018-12-08T05:00:49.650Z,83.03
2018-12-08T05:03:35.082Z,81.33
2018-12-08T05:09:01.953Z,86.43
2018-12-08T05:12:01.141Z,81.03
2018-12-08T05:17:39.074Z,78.83
2018-12-08T05:20:24.636Z,81.30
2018-12-08T05:23:23.736Z,78.73
2018-12-08T05:26:09.287Z,77.90
2018-12-08T05:29:08.641Z,79.33
2018-12-08T05:37:22.950Z,82.83
2018-12-08T05:40:02.401Z,77.40
2018-12-08T05:42:47.939Z,82.87
2018-12-08T05:45:27.347Z,83.57
2018-12-08T05:48:13.774Z,88.33
2018-12-08T05:59:20.157Z,84.03
2018-12-08T06:05:12.123Z,84.90
2018-12-08T06:07:58.827Z,88.77
2018-12-08T06:13:19.654Z,80.63
2018-12-08T06:36:27.177Z,80.77
2018-12-08T06:39:26.477Z,81.30
2018-12-08T06:44:56.984Z,77.63
2018-12-08T06:47:24.710Z,78.70
2018-12-08T06:49:52.429Z,83.87
2018-12-08T09:58:21.599Z,53.93
2018-12-08T10:00:49.204Z,53.27
2018-12-08T10:03:47.718Z,49.07
2018-12-08T10:09:36.640Z,45.83
2018-12-08T10:15:30.305Z,47.70
2018-12-08T10:18:16.953Z,50.83
2018-12-08T10:20:44.620Z,45.93
2018-12-08T10:26:20.799Z,47.87
2018-12-08T10:32:09.597Z,51.10
2018-12-08T10:37:56.451Z,52.03
2018-12-08T10:40:30.369Z,51.57
2018-12-08T10:43:07.833Z,52.67
2018-12-08T10:45:35.364Z,52.27
2018-12-08T10:48:02.876Z,51.77
2018-12-08T10:50:30.436Z,52.07
2018-12-08T10:52:57.953Z,51.50
2018-12-08T10:55:25.505Z,55.27
2018-12-08T10:57:53.006Z,49.50
2018-12-08T11:00:26.059Z,51.00
2018-12-08T11:02:53.591Z,48.83
2018-12-08T11:05:21.246Z,49.67
2018-12-08T11:07:56.117Z,47.67
2018-12-08T11:10:33.856Z,49.77
2018-12-08T11:13:09.767Z,56.03
2018-12-08T11:15:49.858Z,78.00
2018-12-08T11:18:27.643Z,57.10
2018-12-08T11:20:55.172Z,51.67
2018-12-08T11:23:22.710Z,48.27
2018-12-08T11:25:50.327Z,47.43
2018-12-08T11:28:17.843Z,50.00
2018-12-08T11:30:55.432Z,46.83
2018-12-08T11:33:22.973Z,50.67
2018-12-08T11:35:57.399Z,43.43
2018-12-08T11:38:30.293Z,45.70
2018-12-08T11:41:07.899Z,46.33
2018-12-08T11:43:45.804Z,45.13
2018-12-08T11:46:23.369Z,43.43
2018-12-08T11:48:50.891Z,45.77
2018-12-08T11:51:18.443Z,42.73
2018-12-08T11:53:52.257Z,47.80
2018-12-08T11:56:32.857Z,54.70
2018-12-08T11:59:10.020Z,62.70
2018-12-08T12:04:37.829Z,51.87
2018-12-08T12:07:12.572Z,51.73
2018-12-08T12:09:50.389Z,50.93
2018-12-08T12:12:29.001Z,53.60
2018-12-08T12:18:03.911Z,76.10
2018-12-08T12:20:51.892Z,63.23
2018-12-08T12:23:29.596Z,66.47
2018-12-08T12:26:03.517Z,61.87
2018-12-08T12:28:41.001Z,63.83
2018-12-08T12:31:16.707Z,62.93
2018-12-08T12:33:54.415Z,67.73
2018-12-08T12:36:34.829Z,74.17
2018-12-08T12:39:02.404Z,74.67
2018-12-08T12:41:39.569Z,96.23
2018-12-08T12:47:09.785Z,90.93
2018-12-08T12:49:45.759Z,92.17
2018-12-08T12:52:23.552Z,93.53
2018-12-08T12:54:58.254Z,98.37
2018-12-08T12:57:35.835Z,81.67
2018-12-08T13:00:15.535Z,79.03
2018-12-08T13:02:49.697Z,79.37
2018-12-08T13:05:28.308Z,73.80
2018-12-08T13:08:06.384Z,83.03
2018-12-08T13:10:41.259Z,85.27
2018-12-08T13:13:19.069Z,76.63
2018-12-08T13:15:59.065Z,78.77
2018-12-08T13:18:35.115Z,82.73
2018-12-08T13:21:11.058Z,71.17
2018-12-08T13:23:48.667Z,64.83
2018-12-08T13:26:26.558Z,71.07
2018-12-08T13:29:02.429Z,67.57
2018-12-08T13:31:42.893Z,66.63
2018-12-08T13:34:22.702Z,64.53
2018-12-08T13:36:59.929Z,67.90
2018-12-08T13:42:38.824Z,67.47
2018-12-08T13:45:17.030Z,67.37
2018-12-08T13:47:54.481Z,95.23
2018-12-08T18:17:07.771Z,189.93
2018-12-08T18:19:35.328Z,184.30
2018-12-08T18:22:03.143Z,181.00
2018-12-08T18:24:31.664Z,189.23
2018-12-08T18:26:59.436Z,269.17
2018-12-08T18:29:27.050Z,213.30
2018-12-08T18:31:54.760Z,184.50
2018-12-08T18:34:23.518Z,167.10
2018-12-08T18:36:51.106Z,149.30
2018-12-08T18:39:19.059Z,175.13
2018-12-08T18:41:46.678Z,190.07
2018-12-08T18:44:14.289Z,183.93
2018-12-08T18:46:42.925Z,147.17
2018-12-08T18:49:10.650Z,143.73
2018-12-08T18:51:40.068Z,168.20
2018-12-08T18:54:08.615Z,164.73
2018-12-08T18:56:36.889Z,197.07
2018-12-08T18:59:04.500Z,181.33
2018-12-08T19:01:32.049Z,162.37
2018-12-08T19:03:59.631Z,162.93
2018-12-08T19:06:28.047Z,169.23
2018-12-08T19:08:55.796Z,184.70
2018-12-08T19:11:23.421Z,196.57
2018-12-08T19:13:51.099Z,175.90
2018-12-08T19:16:18.640Z,175.47
2018-12-08T19:18:46.229Z,176.47
2018-12-08T19:21:13.810Z,203.70
2018-12-08T19:23:43.789Z,265.33
2018-12-08T19:26:10.949Z,311.27
2018-12-08T19:28:39.150Z,327.03
2018-12-08T19:31:06.750Z,337.50
2018-12-08T19:33:34.307Z,299.53
2018-12-08T19:36:02.807Z,239.17
2018-12-08T19:38:30.346Z,229.93
2018-12-08T19:40:58.015Z,210.27
2018-12-08T19:43:28.006Z,177.60
2018-12-08T19:45:55.573Z,166.90
2018-12-08T19:48:23.928Z,159.17
2018-12-08T19:50:51.465Z,174.63
2018-12-08T19:53:19.042Z,170.07
2018-12-08T19:55:46.608Z,169.23
2018-12-08T19:58:14.195Z,165.57
2018-12-08T20:00:41.744Z,162.73
2018-12-08T20:03:10.194Z,160.27
2018-12-08T20:05:37.735Z,222.20
2018-12-08T20:08:05.333Z,204.40
2018-12-08T20:10:32.882Z,185.47
2018-12-08T20:13:01.284Z,180.20
2018-12-08T20:15:28.862Z,205.03
2018-12-08T20:17:56.407Z,202.93
2018-12-08T20:20:23.989Z,226.77
2018-12-08T20:22:51.538Z,215.63
2018-12-08T20:25:19.065Z,207.03
2018-12-08T20:27:46.656Z,213.70
2018-12-08T20:30:14.201Z,202.50
2018-12-08T20:32:41.825Z,190.53
2018-12-08T20:35:09.420Z,174.13
2018-12-08T20:37:36.965Z,175.70
2018-12-08T20:40:04.824Z,166.50
2018-12-08T20:42:33.326Z,178.87
2018-12-08T20:45:00.889Z,180.77
2018-12-08T20:47:28.498Z,227.13
2018-12-08T20:49:56.038Z,206.93
2018-12-08T20:52:24.669Z,188.70
2018-12-08T20:54:52.283Z,195.93
2018-12-08T20:57:19.831Z,195.73
2018-12-08T20:59:47.428Z,192.67
2018-12-08T21:02:14.993Z,193.60
2018-12-08T21:04:42.553Z,194.00
2018-12-08T21:07:10.150Z,200.83
2018-12-08T21:09:37.767Z,206.57
2018-12-08T21:12:06.681Z,201.80
2018-12-08T21:14:34.539Z,208.63
2018-12-08T21:17:02.097Z,196.90
2018-12-08T21:19:29.673Z,197.77
2018-12-08T21:21:57.236Z,187.17
2018-12-08T21:24:25.274Z,177.63
2018-12-08T21:26:53.025Z,173.43
2018-12-08T21:29:20.640Z,178.80
2018-12-08T21:31:48.202Z,183.67
2018-12-08T21:34:15.744Z,186.40
2018-12-08T21:36:43.319Z,198.27
2018-12-08T21:39:10.860Z,189.63
2018-12-08T21:41:38.426Z,195.23
2018-12-08T21:44:05.965Z,209.20
2018-12-08T21:46:34.512Z,222.20
2018-12-08T21:49:02.054Z,206.10
2018-12-08T21:51:29.663Z,200.47
2018-12-08T21:53:58.138Z,207.50
2018-12-08T21:56:25.723Z,217.70
2018-12-08T21:58:54.221Z,155.83
2018-12-08T22:01:21.774Z,144.23
2018-12-08T22:03:49.369Z,139.83
2018-12-08T22:06:16.917Z,134.90
2018-12-08T22:08:44.463Z,136.40
2018-12-08T22:11:12.058Z,148.73
2018-12-08T22:13:39.623Z,143.03
2018-12-08T22:16:07.160Z,137.43
2018-12-08T22:18:34.697Z,133.77
2018-12-08T22:21:02.288Z,135.33
2018-12-08T22:23:29.826Z,133.83
2018-12-08T22:25:57.417Z,135.00
2018-12-08T22:28:25.008Z,138.50
2018-12-08T22:30:52.565Z,130.50
2018-12-08T22:33:21.039Z,137.27
2018-12-08T22:35:48.622Z,141.53
2018-12-08T22:38:16.227Z,143.63
2018-12-08T22:40:43.761Z,140.87
2018-12-08T22:43:11.367Z,147.20
2018-12-08T22:45:38.962Z,144.73
2018-12-08T22:48:06.569Z,149.97
2018-12-08T22:50:34.105Z,153.47
2018-12-08T22:53:01.668Z,162.00
2018-12-08T22:55:29.257Z,163.87
2018-12-08T22:57:56.854Z,167.37
2018-12-08T23:00:42.991Z,180.60
2018-12-08T23:03:10.549Z,195.90
2018-12-08T23:05:38.113Z,199.50
2018-12-08T23:08:05.711Z,181.60
2018-12-08T23:10:33.270Z,180.60
2018-12-08T23:13:00.888Z,180.13
2018-12-08T23:15:28.442Z,185.37
2018-12-08T23:17:56.855Z,199.57
2018-12-08T23:20:25.202Z,274.50
2018-12-08T23:22:53.738Z,231.67
2018-12-08T23:25:21.337Z,208.07
2018-12-08T23:27:48.882Z,204.13
2018-12-08T23:30:17.229Z,201.03
2018-12-08T23:32:44.797Z,193.63
2018-12-08T23:35:12.392Z,201.83
2018-12-08T23:37:40.130Z,232.43
2018-12-08T23:40:07.719Z,214.87
2018-12-08T23:42:35.424Z,272.00
2018-12-08T23:45:03.003Z,258.17
2018-12-08T23:47:30.699Z,243.40
2018-12-08T23:49:58.288Z,244.30
2018-12-08T23:52:25.883Z,236.63
2018-12-08T23:54:53.425Z,227.77
2018-12-08T23:57:21.007Z,227.67
2018-12-08T23:59:49.420Z,225.37
